createdAt,value
2023-04-22T00:00:44.099Z,9.02
2023-04-22T00:03:17.004Z,12.90
2023-04-22T00:05:47.532Z,12.15
2023-04-22T00:08:17.732Z,13.18
2023-04-22T00:10:48.048Z,16.90
2023-04-22T00:13:18.309Z,13.80
2023-04-22T00:15:48.856Z,8.80
2023-04-22T00:18:19.694Z,9.45
2023-04-22T00:20:49.940Z,7.95
2023-04-22T00:23:20.234Z,6.68
2023-04-22T00:25:51.388Z,5.82
2023-04-22T00:28:22.907Z,4.97
2023-04-22T00:30:53.258Z,5.65
2023-04-22T00:33:23.567Z,3.97
2023-04-22T00:35:54.958Z,3.83
2023-04-22T00:38:25.227Z,4.05
2023-04-22T00:40:56.001Z,5.38
2023-04-22T00:43:28.407Z,5.15
2023-04-22T00:45:58.884Z,7.38
2023-04-22T00:48:31.785Z,3.75
2023-04-22T00:51:02.704Z,3.75
2023-04-22T00:53:34.114Z,5.50
2023-04-22T00:56:06.183Z,4.78
2023-04-22T00:58:38.184Z,4.05
2023-04-22T01:01:08.554Z,5.65
2023-04-22T01:03:41.114Z,4.55
2023-04-22T01:06:11.668Z,3.70
2023-04-22T01:08:42.764Z,3.95
2023-04-22T01:11:14.047Z,3.67
2023-04-22T01:13:44.249Z,3.25
2023-04-22T01:16:14.729Z,5.90
2023-04-22T01:18:45.209Z,6.47
2023-04-22T01:21:15.856Z,7.13
2023-04-22T01:23:46.624Z,6.60
2023-04-22T01:26:17.092Z,6.10
2023-04-22T01:28:56.647Z,6.53
2023-04-22T01:31:26.981Z,6.93
2023-04-22T01:33:58.376Z,4.80
2023-04-22T01:36:29.935Z,5.65
2023-04-22T01:39:01.537Z,9.38
2023-04-22T01:41:32.266Z,7.32
2023-04-22T01:44:04.014Z,6.20
2023-04-22T01:46:34.561Z,8.15
2023-04-22T01:49:05.191Z,6.30
2023-04-22T01:51:35.913Z,5.53
2023-04-22T01:54:06.337Z,5.63
2023-04-22T01:56:37.034Z,7.45
2023-04-22T01:59:08.088Z,5.00
2023-04-22T02:01:38.502Z,5.82
2023-04-22T02:04:08.697Z,5.75
2023-04-22T02:06:41.243Z,6.78
2023-04-22T02:09:11.585Z,7.72
2023-04-22T02:11:44.075Z,8.05
2023-04-22T02:14:14.450Z,6.25
2023-04-22T02:16:44.744Z,7.20
2023-04-22T02:19:15.338Z,8.25
2023-04-22T02:21:47.793Z,8.05
2023-04-22T02:24:18.505Z,6.72
2023-04-22T02:26:49.510Z,8.30
2023-04-22T02:29:19.776Z,11.35
2023-04-22T02:31:50.310Z,5.78
2023-04-22T02:34:20.709Z,10.00
2023-04-22T02:36:51.236Z,5.13
2023-04-22T02:39:21.976Z,7.50
2023-04-22T02:41:52.321Z,7.25
2023-04-22T02:44:22.544Z,6.65
2023-04-22T02:46:52.931Z,6.90
2023-04-22T02:49:26.336Z,5.63
2023-04-22T02:51:57.740Z,7.25
2023-04-22T02:54:28.102Z,7.20
2023-04-22T02:56:58.318Z,6.50
2023-04-22T02:59:28.813Z,7.53
2023-04-22T03:01:59.629Z,9.82
2023-04-22T03:04:30.110Z,9.68
2023-04-22T03:07:00.584Z,9.45
2023-04-22T03:09:35.948Z,6.93
2023-04-22T03:12:06.275Z,8.52
2023-04-22T03:14:37.618Z,9.27
2023-04-22T03:17:07.822Z,9.93
2023-04-22T03:19:38.319Z,13.63
2023-04-22T03:22:08.982Z,9.43
2023-04-22T03:24:39.272Z,10.77
2023-04-22T03:27:10.937Z,12.18
2023-04-22T03:29:48.356Z,12.13
2023-04-22T03:32:21.709Z,9.32
2023-04-22T03:34:52.187Z,10.30
2023-04-22T03:37:22.492Z,10.00
2023-04-22T03:39:52.786Z,8.10
2023-04-22T03:42:23.050Z,9.40
2023-04-22T03:44:53.467Z,10.02
2023-04-22T03:47:24.082Z,8.45
2023-04-22T03:49:54.613Z,9.57
2023-04-22T03:52:24.892Z,9.18
2023-04-22T03:54:55.185Z,8.93
2023-04-22T03:57:25.499Z,7.00
2023-04-22T03:59:55.874Z,8.25
2023-04-22T04:02:26.382Z,7.40
2023-04-22T04:04:57.012Z,6.38
2023-04-22T04:07:27.849Z,7.40
2023-04-22T04:09:58.164Z,7.60
2023-04-22T04:12:28.433Z,7.75
2023-04-22T04:14:59.074Z,6.35
2023-04-22T04:17:29.422Z,7.88
2023-04-22T04:19:59.721Z,7.22
2023-04-22T04:22:30.312Z,6.32
2023-04-22T04:25:01.952Z,6.53
2023-04-22T04:27:32.922Z,8.00
2023-04-22T04:30:04.372Z,6.15
2023-04-22T04:32:36.145Z,5.50
2023-04-22T04:35:07.112Z,7.70
2023-04-22T04:37:37.593Z,4.68
2023-04-22T04:40:08.396Z,4.22
2023-04-22T04:42:39.066Z,5.55
2023-04-22T04:45:09.655Z,5.13
2023-04-22T04:47:39.965Z,3.78
2023-04-22T04:50:10.635Z,5.10
2023-04-22T04:52:40.970Z,6.25
2023-04-22T04:55:11.398Z,6.38
2023-04-22T04:57:41.705Z,4.38
2023-04-22T05:00:14.180Z,6.15
2023-04-22T05:02:44.511Z,4.45
2023-04-22T05:05:14.892Z,4.95
2023-04-22T05:07:45.213Z,5.38
2023-04-22T05:10:16.302Z,4.07
2023-04-22T05:12:49.528Z,4.53
2023-04-22T05:15:19.870Z,5.32
2023-04-22T05:17:50.977Z,4.85
2023-04-22T05:20:21.822Z,5.53
2023-04-22T05:22:52.047Z,3.28
2023-04-22T05:25:22.742Z,6.45
2023-04-22T05:27:53.039Z,4.57
2023-04-22T05:30:24.672Z,6.03
2023-04-22T05:32:55.098Z,4.95
2023-04-22T05:35:25.614Z,5.00
2023-04-22T05:37:56.072Z,3.58
2023-04-22T05:40:26.465Z,7.88
2023-04-22T05:42:57.996Z,5.82
2023-04-22T05:45:28.307Z,4.38
2023-04-22T05:47:58.626Z,7.07
2023-04-22T05:50:29.072Z,5.97
2023-04-22T05:52:59.553Z,3.92
2023-04-22T05:55:29.905Z,4.80
2023-04-22T05:58:00.230Z,5.38
2023-04-22T06:00:30.768Z,4.32
2023-04-22T06:03:01.774Z,4.47
2023-04-22T06:05:32.608Z,3.55
2023-04-22T06:08:02.946Z,3.80
2023-04-22T06:10:33.315Z,4.32
2023-04-22T06:13:06.663Z,6.63
2023-04-22T06:15:39.120Z,4.20
2023-04-22T06:18:09.460Z,3.55
2023-04-22T06:20:40.703Z,2.55
2023-04-22T06:23:12.359Z,3.70
2023-04-22T06:25:42.641Z,2.50
2023-04-22T06:28:12.934Z,2.58
2023-04-22T06:30:43.589Z,2.42
2023-04-22T06:33:15.086Z,3.55
2023-04-22T06:35:45.686Z,3.47
2023-04-22T06:38:16.232Z,2.80
2023-04-22T06:40:46.640Z,5.43
2023-04-22T06:43:17.112Z,2.55
2023-04-22T06:45:48.413Z,3.38
2023-04-22T06:48:23.372Z,3.20
2023-04-22T06:50:56.237Z,4.43
2023-04-22T06:53:29.180Z,3.88
2023-04-22T06:56:02.601Z,3.50
2023-04-22T06:58:32.929Z,2.45
2023-04-22T07:01:03.598Z,3.72
2023-04-22T07:03:34.302Z,3.13
2023-04-22T07:06:05.939Z,3.70
2023-04-22T07:08:36.479Z,2.50
2023-04-22T07:11:07.150Z,2.30
2023-04-22T07:13:47.432Z,3.80
2023-04-22T07:16:18.553Z,1.75
2023-04-22T07:18:51.432Z,3.17
2023-04-22T07:21:21.916Z,3.17
2023-04-22T07:23:55.258Z,3.35
2023-04-22T07:26:33.974Z,2.90
2023-04-22T07:29:07.561Z,5.40
2023-04-22T07:31:40.941Z,3.03
2023-04-22T07:34:32.224Z,3.25
2023-04-22T07:37:34.985Z,2.50
2023-04-22T07:40:06.177Z,3.25
2023-04-22T07:42:43.351Z,2.30
2023-04-22T07:45:15.666Z,3.53
2023-04-22T07:47:47.162Z,2.20
2023-04-22T07:50:20.851Z,2.47
2023-04-22T07:52:57.008Z,3.55
2023-04-22T07:56:12.974Z,2.45
2023-04-22T07:58:47.965Z,2.90
2023-04-22T08:01:19.965Z,2.60
2023-04-22T08:03:57.151Z,3.35
2023-04-22T08:06:33.073Z,2.22
2023-04-22T08:09:17.138Z,2.55
2023-04-22T08:11:50.489Z,2.83
2023-04-22T08:14:27.308Z,6.00
2023-04-22T08:18:05.584Z,3.20
2023-04-22T08:20:40.941Z,3.75
2023-04-22T08:23:16.373Z,3.00
2023-04-22T08:26:01.234Z,2.00
2023-04-22T08:28:42.594Z,2.58
2023-04-22T08:31:34.334Z,2.05
2023-04-22T08:34:05.911Z,1.40
2023-04-22T08:36:54.436Z,2.15
2023-04-22T08:39:24.814Z,2.05
2023-04-22T08:41:58.595Z,1.65
2023-04-22T08:44:29.986Z,2.58
2023-04-22T08:47:02.650Z,2.60
2023-04-22T08:49:35.938Z,4.00
2023-04-22T08:52:12.567Z,1.00
2023-04-22T08:54:44.093Z,2.28
2023-04-22T08:57:21.911Z,1.00
2023-04-22T08:59:59.239Z,4.88
2023-04-22T09:02:36.675Z,1.13
2023-04-22T09:05:11.760Z,5.35
2023-04-22T09:08:29.787Z,1.35
2023-04-22T09:11:00.493Z,2.10
2023-04-22T09:13:31.109Z,2.03
2023-04-22T09:16:01.855Z,1.25
2023-04-22T09:18:45.529Z,2.60
2023-04-22T09:21:56.253Z,2.55
2023-04-22T09:24:52.759Z,1.73
2023-04-22T09:27:37.207Z,4.28
2023-04-22T09:30:12.277Z,2.35
2023-04-22T09:32:51.928Z,1.50
2023-04-22T09:35:41.536Z,3.97
2023-04-22T09:39:08.243Z,2.83
2023-04-22T09:44:35.589Z,1.33
2023-04-22T09:47:19.625Z,4.63
2023-04-22T09:49:57.087Z,3.50
2023-04-22T10:11:10.362Z,5.00
2023-04-22T10:13:58.819Z,2.28
2023-04-22T10:16:32.537Z,1.23
2023-04-22T10:20:36.162Z,2.85
2023-04-22T10:22:36.034Z,2.63
2023-04-22T10:25:22.810Z,3.05
2023-04-22T10:28:08.512Z,1.23
2023-04-22T10:30:40.786Z,2.30
2023-04-22T10:33:30.439Z,1.13
2023-04-22T10:36:15.609Z,1.58
2023-04-22T10:38:55.385Z,1.35
2023-04-22T10:41:36.033Z,3.33
2023-04-22T10:44:08.024Z,2.17
2023-04-22T10:46:42.849Z,1.80
2023-04-22T10:49:18.229Z,1.10
2023-04-22T10:51:52.484Z,2.85
2023-04-22T10:54:31.947Z,3.15
2023-04-22T10:57:09.841Z,3.78
2023-04-22T10:59:50.056Z,2.22
2023-04-22T11:02:22.373Z,2.72
2023-04-22T11:05:14.534Z,3.42
2023-04-22T11:07:47.051Z,2.55
2023-04-22T11:10:33.959Z,4.60
2023-04-22T11:13:07.520Z,1.65
2023-04-22T11:15:43.222Z,3.42
2023-04-22T11:18:22.645Z,2.58
2023-04-22T11:20:54.211Z,1.63
2023-04-22T11:23:35.376Z,2.30
2023-04-22T11:26:12.104Z,2.33
2023-04-22T11:28:51.017Z,1.90
2023-04-22T11:31:21.472Z,2.35
2023-04-22T11:33:52.422Z,2.53
2023-04-22T11:36:24.604Z,1.20
2023-04-22T11:38:56.625Z,1.15
2023-04-22T11:41:28.381Z,3.75
2023-04-22T11:44:01.118Z,3.22
2023-04-22T11:46:32.156Z,2.70
2023-04-22T11:49:18.439Z,3.97
2023-04-22T11:51:54.096Z,2.50
2023-04-22T11:54:37.935Z,1.27
2023-04-22T11:57:09.943Z,3.50
2023-04-22T11:59:40.457Z,0.98
2023-04-22T12:02:11.235Z,1.55
2023-04-22T12:04:42.326Z,2.25
2023-04-22T12:07:12.593Z,1.67
2023-04-22T12:09:42.874Z,1.38
2023-04-22T12:12:13.037Z,1.10
2023-04-22T12:14:46.870Z,1.17
2023-04-22T12:17:20.420Z,2.25
2023-04-22T12:19:56.011Z,1.85
2023-04-22T12:22:30.821Z,2.90
2023-04-22T12:25:01.992Z,1.02
2023-04-22T12:27:32.189Z,0.80
2023-04-22T12:30:04.219Z,2.85
2023-04-22T12:32:34.491Z,1.20
2023-04-22T12:35:04.923Z,1.58
2023-04-22T12:37:35.475Z,1.42
2023-04-22T12:40:07.025Z,0.95
2023-04-22T12:42:37.275Z,0.82
2023-04-22T12:45:09.264Z,1.48
2023-04-22T12:47:39.611Z,3.35
2023-04-22T12:50:10.214Z,1.05
2023-04-22T12:52:40.462Z,1.00
2023-04-22T12:55:10.994Z,0.90
2023-04-22T12:57:41.164Z,0.52
2023-04-22T13:00:14.637Z,0.98
2023-04-22T13:02:46.952Z,0.68
2023-04-22T13:05:19.310Z,2.55
2023-04-22T13:07:59.549Z,0.30
2023-04-22T13:10:34.605Z,0.85
2023-04-22T13:15:39.177Z,0.98
2023-04-22T13:18:09.509Z,0.55
2023-04-22T13:20:41.031Z,1.55
2023-04-22T13:23:11.800Z,3.17
2023-04-22T13:25:42.130Z,2.47
2023-04-22T13:28:13.348Z,2.17
2023-04-22T13:30:43.625Z,0.32
2023-04-22T13:33:13.946Z,2.55
2023-04-22T13:35:44.194Z,1.10
2023-04-22T13:38:14.488Z,0.43
2023-04-22T13:40:44.669Z,1.20
2023-04-22T13:43:15.010Z,8.50
2023-04-22T13:45:45.751Z,2.17
2023-04-22T13:48:16.324Z,11.90
2023-04-22T13:50:46.619Z,5.95
2023-04-22T13:53:16.858Z,2.25
2023-04-22T13:55:47.035Z,1.52
2023-04-22T13:58:17.366Z,1.23
2023-04-22T14:00:47.792Z,2.05
2023-04-22T14:03:18.284Z,2.33
2023-04-22T14:05:48.451Z,3.10
2023-04-22T14:08:18.699Z,1.50
2023-04-22T14:10:48.796Z,1.00
2023-04-22T14:13:19.328Z,1.58
2023-04-22T14:15:50.966Z,0.65
2023-04-22T14:18:23.441Z,0.95
2023-04-22T14:20:53.629Z,1.23
2023-04-22T14:23:23.861Z,2.17
2023-04-22T14:25:54.218Z,2.25
2023-04-22T14:28:24.607Z,1.88
2023-04-22T14:30:55.296Z,1.73
2023-04-22T14:33:26.887Z,1.02
2023-04-22T14:35:57.608Z,0.77
2023-04-22T14:38:29.868Z,1.02
2023-04-22T14:41:00.041Z,1.02
2023-04-22T14:43:32.783Z,0.77
2023-04-22T14:46:03.821Z,0.80
2023-04-22T14:48:35.694Z,4.35
2023-04-22T14:51:06.130Z,1.77
2023-04-22T14:53:36.737Z,2.92
2023-04-22T14:56:07.047Z,1.08
2023-04-22T14:58:37.283Z,1.65
2023-04-22T15:01:07.818Z,1.13
2023-04-22T15:03:38.460Z,4.05
2023-04-22T15:06:08.812Z,1.05
2023-04-22T15:08:40.214Z,1.33
2023-04-22T15:11:10.600Z,1.60
2023-04-22T15:13:41.247Z,1.67
2023-04-22T15:16:12.869Z,3.08
2023-04-22T15:18:43.435Z,1.95
2023-04-22T15:21:13.705Z,2.03
2023-04-22T15:23:43.929Z,1.20
2023-04-22T15:26:15.445Z,1.90
2023-04-22T15:28:46.600Z,1.13
2023-04-22T15:31:20.988Z,2.35
2023-04-22T15:33:51.242Z,1.25
2023-04-22T15:36:22.161Z,3.30
2023-04-22T15:38:58.050Z,2.55
2023-04-22T15:41:31.128Z,2.53
2023-04-22T15:44:01.636Z,2.80
2023-04-22T15:46:33.235Z,1.80
2023-04-22T15:49:04.711Z,3.47
2023-04-22T15:51:34.900Z,2.42
2023-04-22T15:54:05.212Z,2.97
2023-04-22T15:56:36.259Z,2.10
2023-04-22T15:59:07.170Z,3.53
2023-04-22T16:01:44.396Z,5.90
2023-04-22T16:04:19.548Z,2.85
2023-04-22T16:06:50.911Z,3.00
2023-04-22T16:09:30.373Z,2.25
2023-04-22T16:12:08.635Z,7.70
2023-04-22T16:14:38.833Z,6.53
2023-04-22T16:17:09.171Z,5.85
2023-04-22T16:19:39.644Z,2.75
2023-04-22T16:22:10.104Z,2.65
2023-04-22T16:24:43.321Z,3.47
2023-04-22T16:27:17.062Z,4.88
2023-04-22T16:29:48.998Z,1.98
2023-04-22T16:32:19.262Z,2.85
2023-04-22T16:34:49.450Z,2.45
2023-04-22T16:37:20.786Z,1.67
2023-04-22T16:39:52.015Z,3.58
2023-04-22T16:42:22.827Z,7.35
2023-04-22T16:44:53.757Z,5.25
2023-04-22T16:47:24.915Z,1.83
2023-04-22T16:49:55.115Z,10.30
2023-04-22T16:52:25.408Z,2.45
2023-04-22T16:54:55.924Z,2.47
2023-04-22T16:57:26.224Z,5.13
2023-04-22T16:59:56.372Z,2.85
2023-04-22T17:02:26.801Z,3.28
2023-04-22T17:04:57.137Z,3.45
2023-04-22T17:07:27.508Z,2.92
2023-04-22T17:09:58.306Z,3.88
2023-04-22T17:12:28.754Z,3.80
2023-04-22T17:14:59.003Z,11.48
2023-04-22T17:17:29.330Z,3.72
2023-04-22T17:20:00.003Z,2.92
2023-04-22T17:22:30.262Z,2.83
2023-04-22T17:25:00.752Z,3.05
2023-04-22T17:27:31.814Z,4.32
2023-04-22T17:30:02.241Z,4.85
2023-04-22T17:32:32.650Z,6.70
2023-04-22T17:35:03.124Z,5.53
2023-04-22T17:37:33.337Z,7.70
2023-04-22T17:40:05.055Z,7.18
2023-04-22T17:42:45.971Z,8.95
2023-04-22T17:45:17.019Z,8.15
2023-04-22T17:47:48.926Z,9.80
2023-04-22T17:50:19.911Z,9.70
2023-04-22T17:52:50.318Z,9.13
2023-04-22T17:55:21.002Z,7.20
2023-04-22T17:57:53.402Z,5.88
2023-04-22T18:00:23.894Z,8.40
2023-04-22T18:02:54.647Z,7.10
2023-04-22T18:05:27.325Z,6.38
2023-04-22T18:08:02.961Z,10.05
2023-04-22T18:10:35.124Z,8.13
2023-04-22T18:13:06.759Z,8.43
2023-04-22T18:15:36.920Z,8.10
2023-04-22T18:18:07.264Z,5.38
2023-04-22T18:20:37.894Z,6.38
2023-04-22T18:23:11.258Z,11.35
2023-04-22T18:25:41.672Z,5.57
2023-04-22T18:28:11.889Z,4.75
2023-04-22T18:30:42.938Z,4.68
2023-04-22T18:33:13.567Z,7.65
2023-04-22T18:35:43.830Z,5.88
2023-04-22T18:38:14.399Z,7.05
2023-04-22T18:40:44.696Z,6.25
2023-04-22T18:43:15.072Z,5.90
2023-04-22T18:45:45.411Z,5.75
2023-04-22T18:48:16.367Z,7.85
2023-04-22T18:50:46.915Z,8.27
2023-04-22T18:53:25.139Z,9.65
2023-04-22T18:55:58.611Z,12.63
2023-04-22T18:58:29.148Z,8.93
2023-04-22T19:01:05.968Z,10.10
2023-04-22T19:03:37.518Z,12.05
2023-04-22T19:06:07.958Z,10.15
2023-04-22T19:08:38.393Z,13.15
2023-04-22T19:11:08.856Z,12.80
2023-04-22T19:13:39.262Z,14.48
2023-04-22T19:16:12.548Z,10.65
2023-04-22T19:18:44.354Z,7.90
2023-04-22T19:21:19.989Z,7.68
2023-04-22T19:23:53.114Z,6.03
2023-04-22T19:26:23.409Z,5.22
2023-04-22T19:28:59.395Z,6.18
2023-04-22T19:31:30.106Z,5.28
2023-04-22T19:34:05.446Z,3.83
2023-04-22T19:36:36.978Z,4.25
2023-04-22T19:39:11.534Z,4.63
2023-04-22T19:41:41.877Z,5.15
2023-04-22T19:44:12.209Z,6.05
2023-04-22T19:46:42.890Z,6.53
2023-04-22T19:49:17.538Z,4.78
2023-04-22T19:51:48.409Z,4.72
2023-04-22T19:54:21.821Z,6.57
2023-04-22T19:56:55.654Z,4.35
2023-04-22T19:59:28.324Z,3.92
2023-04-22T20:01:59.899Z,3.90
2023-04-22T20:04:30.759Z,7.80
2023-04-22T20:07:03.005Z,3.58
2023-04-22T20:09:33.914Z,3.95
2023-04-22T20:12:08.009Z,4.90
2023-04-22T20:14:43.466Z,3.35
2023-04-22T20:17:17.211Z,4.97
2023-04-22T20:19:50.213Z,6.47
2023-04-22T20:22:27.483Z,6.68
2023-04-22T20:25:03.825Z,7.05
2023-04-22T20:27:35.121Z,5.95
2023-04-22T20:30:17.852Z,4.28
2023-04-22T20:32:56.449Z,3.03
2023-04-22T20:35:27.080Z,3.95
2023-04-22T20:38:04.994Z,5.10
2023-04-22T20:40:39.163Z,3.63
2023-04-22T20:43:09.419Z,3.80
2023-04-22T20:45:40.237Z,4.20
2023-04-22T20:48:10.655Z,4.28
2023-04-22T20:50:40.943Z,5.35
2023-04-22T20:53:11.920Z,2.80
2023-04-22T20:55:42.132Z,3.20
2023-04-22T20:58:12.878Z,4.90
2023-04-22T21:00:43.770Z,4.63
2023-04-22T21:03:18.931Z,5.80
2023-04-22T21:05:52.565Z,4.97
2023-04-22T21:08:28.023Z,3.95
2023-04-22T21:11:00.212Z,8.02
2023-04-22T21:13:30.675Z,4.18
2023-04-22T21:16:11.579Z,5.85
2023-04-22T21:18:45.026Z,3.38
2023-04-22T21:21:17.740Z,4.20
2023-04-22T21:23:48.795Z,2.50
2023-04-22T21:26:19.243Z,3.40
2023-04-22T21:28:50.028Z,3.17
2023-04-22T21:31:21.306Z,3.13
2023-04-22T21:33:51.588Z,2.63
2023-04-22T21:36:22.833Z,2.25
2023-04-22T21:38:53.299Z,3.42
2023-04-22T21:41:24.009Z,4.22
2023-04-22T21:43:54.356Z,3.40
2023-04-22T21:46:24.800Z,3.60
2023-04-22T21:48:55.094Z,3.38
2023-04-22T21:51:25.449Z,3.88
2023-04-22T21:53:55.775Z,4.22
2023-04-22T21:56:26.826Z,3.00
2023-04-22T21:58:57.584Z,5.43
2023-04-22T22:01:27.872Z,3.83
2023-04-22T22:03:58.376Z,3.03
2023-04-22T22:06:29.962Z,2.20
2023-04-22T22:09:00.204Z,2.67
2023-04-22T22:11:31.576Z,2.47
2023-04-22T22:14:01.933Z,2.83
2023-04-22T22:16:33.611Z,3.22
2023-04-22T22:19:04.966Z,2.00
2023-04-22T22:21:35.208Z,3.83
2023-04-22T22:24:05.925Z,1.92
2023-04-22T22:26:36.867Z,2.05
2023-04-22T22:29:08.770Z,1.80
2023-04-22T22:31:38.989Z,2.75
2023-04-22T22:34:10.334Z,2.97
2023-04-22T22:36:41.458Z,2.35
2023-04-22T22:39:14.985Z,2.13
2023-04-22T22:41:45.338Z,2.90
2023-04-22T22:44:15.816Z,4.13
2023-04-22T22:46:46.393Z,2.22
2023-04-22T22:49:17.281Z,2.40
2023-04-22T22:51:47.687Z,2.88
2023-04-22T22:54:18.056Z,2.88
2023-04-22T22:56:48.408Z,3.25
2023-04-22T23:01:58.432Z,4.03
2023-04-22T23:04:28.959Z,4.05
2023-04-22T23:06:59.478Z,2.03
2023-04-22T23:09:29.850Z,2.20
2023-04-22T23:12:02.981Z,4.82
2023-04-22T23:14:33.668Z,2.50
2023-04-22T23:17:04.195Z,6.05
2023-04-22T23:19:38.092Z,4.00
2023-04-22T23:22:09.656Z,3.65
2023-04-22T23:24:40.575Z,2.80
2023-04-22T23:27:11.238Z,2.65
2023-04-22T23:29:42.436Z,14.45
2023-04-22T23:32:15.618Z,2.40
2023-04-22T23:34:52.601Z,3.08
2023-04-22T23:37:28.940Z,3.13
2023-04-22T23:39:59.474Z,5.00
2023-04-22T23:42:29.758Z,3.70
2023-04-22T23:45:00.027Z,3.13
2023-04-22T23:47:31.624Z,3.03
2023-04-22T23:50:02.343Z,3.80
2023-04-22T23:52:32.580Z,2.05
2023-04-22T23:55:03.499Z,5.20
2023-04-22T23:57:40.176Z,2.90
